Terminal Aerodrome Forecast
Issued by NWS Cleveland, OH

Home | Current Version | Previous Version | Text Only | Print | Product List | Glossary On
Versions: 1 2 3 4 5 6 7 8 9 10 11 12
425
FTUS41 KCLE 211739
TAFERI
TAF
KERI 211739Z 2118/2218 32008KT P6SM SCT045
     FM220100 VRB03KT P6SM SCT250
     FM221100 16007KT P6SM BKN120
     FM221500 15006KT 5SM -SHRA VCTS SCT035 OVC050CB=

USA.gov is the U.S. government's official web portal to all federal, state and local government web resources and services.